createdAt,value
2022-12-23T00:00:16.821Z,2.87
2022-12-23T00:02:45.152Z,2.90
2022-12-23T00:05:13.596Z,2.60
2022-12-23T00:07:44.879Z,3.03
2022-12-23T00:10:13.243Z,2.70
2022-12-23T00:12:58.978Z,2.70
2022-12-23T00:15:27.008Z,2.77
2022-12-23T00:17:55.174Z,3.10
2022-12-23T00:20:23.288Z,3.10
2022-12-23T00:23:07.838Z,2.57
2022-12-23T00:25:44.719Z,2.73
2022-12-23T00:28:14.331Z,2.60
2022-12-23T00:30:46.910Z,3.30
2022-12-23T00:33:15.207Z,2.73
2022-12-23T00:35:43.285Z,3.20
2022-12-23T00:38:12.945Z,2.50
2022-12-23T00:40:58.343Z,2.93
2022-12-23T00:43:26.377Z,2.60
2022-12-23T00:45:54.503Z,2.90
2022-12-23T00:48:39.973Z,3.10
2022-12-23T00:51:12.746Z,3.00
2022-12-23T00:53:42.203Z,2.93
2022-12-23T00:56:10.347Z,2.87
2022-12-23T00:58:38.359Z,3.27
2022-12-23T01:01:24.340Z,3.10
2022-12-23T01:04:09.662Z,2.97
2022-12-23T01:06:37.686Z,2.70
2022-12-23T01:09:07.131Z,2.90
2022-12-23T01:11:35.244Z,2.70
2022-12-23T01:14:03.275Z,3.30
2022-12-23T01:16:31.392Z,2.70
2022-12-23T01:19:00.187Z,2.70
2022-12-23T01:21:28.246Z,3.20
2022-12-23T01:23:56.259Z,4.00
2022-12-23T01:26:25.659Z,3.20
2022-12-23T01:28:54.844Z,2.93
2022-12-23T01:31:23.083Z,3.00
2022-12-23T01:33:51.139Z,3.70
2022-12-23T01:36:24.858Z,3.40
2022-12-23T01:38:53.091Z,3.17
2022-12-23T01:41:35.613Z,2.83
2022-12-23T01:44:20.297Z,4.07
2022-12-23T01:46:48.877Z,3.87
2022-12-23T01:49:16.916Z,2.90
2022-12-23T01:51:44.924Z,3.33
2022-12-23T01:54:12.966Z,3.40
2022-12-23T01:56:41.032Z,3.03
2022-12-23T01:59:11.082Z,3.10
2022-12-23T02:01:56.668Z,3.70
2022-12-23T02:04:25.280Z,3.03
2022-12-23T02:07:10.678Z,3.43
2022-12-23T02:09:39.694Z,3.17
2022-12-23T02:12:39.585Z,3.63
2022-12-23T02:15:40.042Z,3.10
2022-12-23T02:18:22.851Z,3.70
2022-12-23T02:21:11.168Z,3.73
2022-12-23T02:24:00.048Z,3.30
2022-12-23T02:26:47.195Z,3.13
2022-12-23T02:29:34.184Z,3.60
2022-12-23T02:32:06.617Z,3.70
2022-12-23T02:34:37.403Z,3.40
2022-12-23T02:37:07.377Z,2.97
2022-12-23T02:39:39.137Z,3.80
2022-12-23T02:42:08.410Z,4.13
2022-12-23T02:44:39.900Z,4.03
2022-12-23T02:47:11.432Z,4.10
2022-12-23T02:49:40.930Z,4.00
2022-12-23T02:52:11.650Z,4.00
2022-12-23T02:54:41.911Z,4.30
2022-12-23T02:57:13.221Z,3.90
2022-12-23T02:59:42.354Z,4.20
2022-12-23T03:02:11.922Z,3.90
2022-12-23T03:04:42.294Z,4.10
2022-12-23T03:07:18.220Z,4.13
2022-12-23T03:09:51.804Z,4.70
2022-12-23T03:12:23.742Z,4.60
2022-12-23T03:15:09.264Z,4.63
2022-12-23T03:17:48.437Z,4.50
2022-12-23T03:20:20.910Z,4.40
2022-12-23T03:22:51.185Z,4.17
2022-12-23T03:25:20.719Z,4.30
2022-12-23T03:27:51.085Z,4.40
2022-12-23T03:30:19.920Z,3.97
2022-12-23T03:32:50.954Z,4.50
2022-12-23T03:35:20.095Z,4.20
2022-12-23T03:37:49.426Z,4.60
2022-12-23T03:40:19.741Z,4.50
2022-12-23T03:42:50.272Z,4.87
2022-12-23T03:45:38.095Z,4.77
2022-12-23T03:48:10.968Z,4.53
2022-12-23T03:50:38.964Z,5.10
2022-12-23T03:53:08.718Z,4.70
2022-12-23T03:55:37.747Z,5.10
2022-12-23T03:58:10.183Z,5.00
2022-12-23T04:00:41.399Z,4.90
2022-12-23T04:03:14.423Z,5.27
2022-12-23T04:05:42.468Z,4.67
2022-12-23T04:08:12.562Z,5.40
2022-12-23T04:10:40.601Z,5.17
2022-12-23T04:13:08.693Z,4.83
2022-12-23T04:15:39.347Z,4.83
2022-12-23T04:18:07.511Z,4.83
2022-12-23T04:20:37.423Z,4.90
2022-12-23T04:23:05.471Z,5.17
2022-12-23T04:25:33.516Z,6.03
2022-12-23T04:28:01.533Z,5.57
2022-12-23T04:30:34.018Z,5.13
2022-12-23T04:33:02.914Z,5.30
2022-12-23T04:35:30.981Z,5.10
2022-12-23T04:38:00.997Z,5.37
2022-12-23T04:40:29.071Z,5.83
2022-12-23T04:42:57.111Z,5.40
2022-12-23T04:45:25.130Z,5.47
2022-12-23T04:47:54.427Z,5.63
2022-12-23T04:50:22.502Z,5.50
2022-12-23T04:52:50.534Z,5.67
2022-12-23T04:55:20.028Z,6.00
2022-12-23T04:57:48.072Z,5.90
2022-12-23T05:00:17.006Z,5.70
2022-12-23T05:02:45.129Z,6.10
2022-12-23T05:05:13.318Z,5.50
2022-12-23T05:07:41.342Z,6.00
2022-12-23T05:10:10.816Z,5.90
2022-12-23T05:12:40.225Z,6.13
2022-12-23T05:15:09.266Z,5.13
2022-12-23T05:17:37.675Z,5.57
2022-12-23T05:20:06.273Z,5.30
2022-12-23T05:22:34.298Z,6.20
2022-12-23T05:25:02.349Z,5.80
2022-12-23T05:27:30.381Z,5.53
2022-12-23T05:29:59.798Z,5.80
2022-12-23T05:32:27.853Z,5.90
2022-12-23T05:34:55.907Z,5.63
2022-12-23T05:37:23.995Z,6.20
2022-12-23T05:39:52.049Z,5.80
2022-12-23T05:42:20.243Z,5.50
2022-12-23T05:44:48.619Z,5.77
2022-12-23T05:47:18.019Z,5.43
2022-12-23T05:49:46.084Z,6.00
2022-12-23T05:52:14.112Z,5.90
2022-12-23T05:54:42.154Z,5.97
2022-12-23T05:57:10.186Z,6.07
2022-12-23T05:59:38.230Z,6.10
2022-12-23T06:02:06.435Z,5.90
2022-12-23T06:04:35.972Z,5.47
2022-12-23T06:07:04.029Z,6.03
2022-12-23T06:09:32.085Z,6.30
2022-12-23T06:12:00.129Z,5.40
2022-12-23T06:14:29.275Z,5.70
2022-12-23T06:17:01.132Z,5.33
2022-12-23T06:19:29.216Z,5.77
2022-12-23T06:21:58.609Z,6.20
2022-12-23T06:24:26.680Z,5.53
2022-12-23T06:26:57.232Z,5.53
2022-12-23T06:29:25.754Z,5.50
2022-12-23T06:31:55.122Z,5.93
2022-12-23T06:34:23.198Z,5.77
2022-12-23T06:36:51.243Z,4.90
2022-12-23T06:39:20.983Z,5.60
2022-12-23T06:41:49.028Z,5.27
2022-12-23T06:44:17.068Z,5.77
2022-12-23T06:46:45.091Z,4.87
2022-12-23T06:49:13.976Z,5.50
2022-12-23T06:51:42.407Z,5.33
2022-12-23T06:54:11.129Z,4.53
2022-12-23T06:56:40.589Z,5.30
2022-12-23T06:59:13.033Z,5.30
2022-12-23T07:01:41.412Z,5.63
2022-12-23T07:04:10.362Z,5.10
2022-12-23T07:06:39.571Z,5.47
2022-12-23T07:09:07.613Z,5.43
2022-12-23T07:11:35.665Z,5.20
2022-12-23T07:14:05.072Z,4.90
2022-12-23T07:16:33.208Z,5.10
2022-12-23T07:19:01.289Z,5.10
2022-12-23T07:21:30.145Z,5.37
2022-12-23T07:23:58.402Z,5.70
2022-12-23T07:26:26.944Z,5.90
2022-12-23T07:28:54.995Z,4.67
2022-12-23T07:31:24.536Z,5.20
2022-12-23T07:33:52.634Z,5.80
2022-12-23T07:36:25.086Z,5.13
2022-12-23T07:38:53.151Z,5.60
2022-12-23T07:41:21.217Z,5.90
2022-12-23T07:43:49.264Z,5.80
2022-12-23T07:46:17.413Z,6.13
2022-12-23T07:48:46.901Z,6.07
2022-12-23T07:51:14.979Z,5.60
2022-12-23T07:53:43.009Z,5.90
2022-12-23T07:56:11.050Z,6.30
2022-12-23T07:58:39.084Z,5.80
2022-12-23T08:01:08.644Z,5.70
2022-12-23T08:03:36.838Z,5.97
2022-12-23T08:06:07.548Z,5.87
2022-12-23T08:08:35.716Z,6.30
2022-12-23T08:11:04.773Z,5.60
2022-12-23T08:13:33.646Z,5.60
2022-12-23T08:16:01.952Z,6.57
2022-12-23T08:18:31.056Z,6.07
2022-12-23T08:20:59.921Z,5.90
2022-12-23T08:23:29.963Z,6.60
2022-12-23T08:26:02.066Z,6.47
2022-12-23T08:28:30.093Z,6.20
2022-12-23T08:31:04.733Z,6.70
2022-12-23T08:33:32.915Z,6.57
2022-12-23T08:36:01.016Z,6.43
2022-12-23T08:38:30.407Z,5.97
2022-12-23T08:40:58.446Z,6.67
2022-12-23T08:43:31.812Z,6.07
2022-12-23T08:46:03.525Z,7.00
2022-12-23T08:48:37.191Z,6.83
2022-12-23T08:51:05.894Z,7.33
2022-12-23T08:53:35.529Z,6.17
2022-12-23T08:56:04.185Z,6.67
2022-12-23T08:58:32.317Z,6.33
2022-12-23T09:01:04.344Z,6.50
2022-12-23T09:03:32.416Z,6.57
2022-12-23T09:06:00.547Z,6.77
2022-12-23T09:08:28.560Z,6.50
2022-12-23T09:10:58.023Z,7.40
2022-12-23T09:13:34.598Z,6.90
2022-12-23T09:16:03.548Z,7.03
2022-12-23T09:18:37.186Z,6.83
2022-12-23T09:21:06.014Z,6.70
2022-12-23T09:23:34.207Z,6.30
2022-12-23T09:26:04.877Z,6.20
2022-12-23T09:28:32.901Z,6.50
2022-12-23T09:31:07.001Z,6.70
2022-12-23T09:33:35.018Z,6.33
2022-12-23T09:36:03.084Z,6.17
2022-12-23T09:38:31.113Z,6.20
2022-12-23T09:41:04.643Z,6.77
2022-12-23T09:43:54.338Z,6.47
2022-12-23T09:46:23.641Z,6.70
2022-12-23T09:48:55.983Z,5.97
2022-12-23T09:51:24.037Z,7.00
2022-12-23T09:53:55.815Z,6.80
2022-12-23T09:56:28.650Z,6.63
2022-12-23T09:58:59.797Z,6.23
2022-12-23T10:01:31.261Z,6.90
2022-12-23T10:04:23.624Z,6.50
2022-12-23T10:06:56.423Z,6.20
2022-12-23T10:09:29.097Z,6.80
2022-12-23T10:11:58.522Z,5.90
2022-12-23T10:14:27.645Z,6.30
2022-12-23T10:16:58.227Z,6.07
2022-12-23T10:19:27.453Z,6.90
2022-12-23T10:21:57.177Z,6.30
2022-12-23T10:24:34.521Z,7.33
2022-12-23T10:27:05.830Z,6.30
2022-12-23T10:29:34.552Z,6.47
2022-12-23T10:32:07.907Z,6.00
2022-12-23T10:34:42.111Z,6.07
2022-12-23T10:37:15.457Z,6.17
2022-12-23T10:39:45.981Z,6.30
2022-12-23T10:42:20.157Z,5.90
2022-12-23T10:45:15.609Z,6.37
2022-12-23T10:47:51.620Z,6.60
2022-12-23T10:50:39.220Z,6.80
2022-12-23T10:53:09.900Z,6.10
2022-12-23T10:55:38.315Z,6.17
2022-12-23T10:58:09.265Z,6.33
2022-12-23T11:00:38.603Z,6.33
2022-12-23T11:03:10.798Z,6.00
2022-12-23T11:05:38.999Z,6.30
2022-12-23T11:08:07.133Z,7.03
2022-12-23T11:10:35.160Z,5.93
2022-12-23T11:13:03.219Z,6.07
2022-12-23T11:15:34.514Z,5.97
2022-12-23T11:18:04.784Z,5.80
2022-12-23T11:20:33.110Z,5.90
2022-12-23T11:23:02.772Z,6.00
2022-12-23T11:25:33.402Z,6.43
2022-12-23T11:28:03.567Z,5.80
2022-12-23T11:30:33.787Z,5.50
2022-12-23T11:33:01.865Z,6.57
2022-12-23T11:35:30.995Z,5.60
2022-12-23T11:37:59.512Z,6.03
2022-12-23T11:40:28.810Z,5.57
2022-12-23T11:43:00.855Z,6.00
2022-12-23T11:45:30.180Z,5.33
2022-12-23T11:47:59.630Z,5.40
2022-12-23T11:50:32.911Z,5.70
2022-12-23T11:53:14.713Z,5.90
2022-12-23T11:55:47.896Z,5.40
2022-12-23T11:58:20.982Z,5.20
2022-12-23T12:00:56.093Z,5.67
2022-12-23T12:03:29.021Z,5.17
2022-12-23T12:06:02.203Z,5.50
2022-12-23T12:08:36.956Z,5.17
2022-12-23T12:11:07.326Z,5.80
2022-12-23T12:13:38.625Z,5.93
2022-12-23T12:16:31.863Z,5.60
2022-12-23T12:19:02.954Z,5.33
2022-12-23T12:21:34.175Z,5.60
2022-12-23T12:24:18.340Z,5.80
2022-12-23T12:26:51.122Z,5.50
2022-12-23T12:29:22.200Z,5.93
2022-12-23T12:31:51.893Z,5.83
2022-12-23T12:34:32.407Z,5.67
2022-12-23T12:37:02.498Z,5.03
2022-12-23T12:39:32.296Z,5.70
2022-12-23T12:42:05.736Z,5.60
2022-12-23T12:44:37.752Z,5.67
2022-12-23T12:47:27.931Z,4.83
2022-12-23T12:50:00.252Z,4.93
2022-12-23T12:52:28.738Z,5.10
2022-12-23T12:54:58.940Z,5.63
2022-12-23T12:57:26.992Z,5.77
2022-12-23T13:00:01.608Z,5.40
2022-12-23T13:02:43.936Z,5.47
2022-12-23T13:05:21.651Z,5.50
2022-12-23T13:07:57.722Z,4.97
2022-12-23T13:10:33.158Z,4.80
2022-12-23T13:13:04.095Z,5.40
2022-12-23T13:15:34.288Z,4.97
2022-12-23T13:18:12.675Z,5.13
2022-12-23T13:20:44.444Z,5.70
2022-12-23T13:23:41.573Z,4.63
2022-12-23T13:26:04.578Z,5.30
2022-12-23T13:28:35.138Z,5.50
2022-12-23T13:31:06.951Z,4.90
2022-12-23T13:33:36.800Z,4.70
2022-12-23T13:36:21.559Z,4.93
2022-12-23T13:39:00.121Z,4.77
2022-12-23T13:41:31.383Z,4.33
2022-12-23T13:44:00.516Z,5.20
2022-12-23T13:46:47.801Z,5.27
2022-12-23T13:49:21.020Z,4.37
2022-12-23T13:51:53.985Z,4.70
2022-12-23T13:54:26.651Z,4.70
2022-12-23T13:56:57.904Z,4.77
2022-12-23T13:59:26.020Z,4.70
2022-12-23T14:01:54.091Z,4.40
2022-12-23T14:04:36.291Z,5.33
2022-12-23T14:07:19.377Z,4.40
2022-12-23T14:09:50.337Z,4.57
2022-12-23T14:12:21.882Z,4.70
2022-12-23T14:15:03.860Z,4.53
2022-12-23T14:17:33.520Z,4.60
2022-12-23T14:20:09.805Z,4.50
2022-12-23T14:23:00.969Z,4.60
2022-12-23T14:25:47.384Z,3.70
2022-12-23T14:28:25.130Z,4.50
2022-12-23T14:30:53.167Z,4.40
2022-12-23T14:33:24.154Z,4.07
2022-12-23T14:35:54.373Z,4.27
2022-12-23T14:38:31.544Z,3.70
2022-12-23T14:41:23.873Z,3.93
2022-12-23T14:43:56.114Z,4.10
2022-12-23T14:46:57.705Z,3.83
2022-12-23T14:49:52.887Z,4.00
2022-12-23T14:52:49.155Z,4.23
2022-12-23T14:55:49.148Z,4.27
2022-12-23T14:58:55.467Z,3.83
2022-12-23T15:01:27.912Z,3.90
2022-12-23T15:04:01.176Z,4.40
2022-12-23T15:06:33.631Z,3.63
2022-12-23T15:09:01.635Z,4.03
2022-12-23T15:11:32.634Z,4.20
2022-12-23T15:14:01.851Z,3.40
2022-12-23T15:16:34.440Z,3.53
2022-12-23T15:19:04.256Z,3.70
2022-12-23T15:21:34.316Z,3.90
2022-12-23T15:24:02.321Z,3.70
2022-12-23T15:26:32.871Z,3.30
2022-12-23T15:29:01.160Z,3.13
2022-12-23T15:31:32.048Z,3.40
2022-12-23T15:34:03.621Z,3.07
2022-12-23T15:36:35.778Z,3.30
2022-12-23T15:39:04.807Z,3.87
2022-12-23T15:41:34.187Z,3.80
2022-12-23T15:44:02.180Z,3.30
2022-12-23T15:46:32.589Z,3.40
2022-12-23T15:49:00.805Z,4.10
2022-12-23T15:52:05.191Z,2.97
2022-12-23T15:54:22.382Z,3.80
2022-12-23T15:56:52.830Z,2.90
2022-12-23T15:59:26.064Z,2.73
2022-12-23T16:01:54.820Z,3.43
2022-12-23T16:04:25.786Z,3.07
2022-12-23T16:06:54.002Z,3.20
2022-12-23T16:09:30.868Z,3.17
2022-12-23T16:12:00.794Z,3.20
2022-12-23T16:14:36.953Z,2.57
2022-12-23T16:17:18.352Z,2.63
2022-12-23T16:19:47.158Z,3.13
2022-12-23T16:22:21.148Z,2.97
2022-12-23T16:24:50.979Z,2.80
2022-12-23T16:27:25.360Z,3.10
2022-12-23T16:29:53.376Z,3.03
2022-12-23T16:32:21.559Z,2.83
2022-12-23T16:34:55.486Z,3.30
2022-12-23T16:37:23.511Z,2.53
2022-12-23T16:39:51.564Z,2.80
2022-12-23T16:42:21.634Z,2.73
2022-12-23T16:44:49.640Z,3.07
2022-12-23T16:47:17.678Z,3.03
2022-12-23T16:49:49.487Z,2.80
2022-12-23T16:52:17.514Z,3.00
2022-12-23T16:54:45.543Z,2.80
2022-12-23T16:57:13.627Z,2.90
2022-12-23T16:59:45.199Z,2.77
2022-12-23T17:02:17.447Z,3.20
2022-12-23T17:04:45.521Z,2.83
2022-12-23T17:07:13.569Z,3.10
2022-12-23T17:09:41.637Z,3.20
2022-12-23T17:12:10.470Z,3.03
2022-12-23T17:14:38.740Z,3.50
2022-12-23T17:17:13.796Z,3.60
2022-12-23T17:19:41.881Z,3.57
2022-12-23T17:22:11.600Z,3.33
2022-12-23T17:24:39.632Z,3.53
2022-12-23T17:27:12.493Z,3.40
2022-12-23T17:29:40.512Z,3.40
2022-12-23T17:32:15.618Z,3.50
2022-12-23T17:34:43.694Z,3.43
2022-12-23T17:37:15.403Z,3.67
2022-12-23T17:39:43.565Z,3.47
2022-12-23T17:42:17.773Z,3.53
2022-12-23T17:44:50.210Z,4.13
2022-12-23T17:47:22.154Z,4.03
2022-12-23T17:49:50.256Z,4.57
2022-12-23T17:52:19.588Z,3.90
2022-12-23T17:54:48.619Z,3.73
2022-12-23T17:57:21.348Z,3.93
2022-12-23T17:59:49.772Z,3.77
2022-12-23T18:02:25.932Z,4.07
2022-12-23T18:04:54.112Z,4.00
2022-12-23T18:07:22.127Z,3.43
2022-12-23T18:09:50.782Z,3.60
2022-12-23T18:12:28.141Z,3.73
2022-12-23T18:14:56.274Z,5.10
2022-12-23T18:17:26.946Z,3.87
2022-12-23T18:19:55.062Z,3.93
2022-12-23T18:22:23.983Z,3.67
2022-12-23T18:24:56.918Z,4.20
2022-12-23T18:27:27.012Z,3.77
2022-12-23T18:29:55.025Z,3.67
2022-12-23T18:32:24.946Z,3.60
2022-12-23T18:34:54.500Z,3.80
2022-12-23T18:37:22.691Z,3.47
2022-12-23T18:39:50.727Z,3.77
2022-12-23T18:42:20.282Z,3.30
2022-12-23T18:44:49.237Z,3.40
2022-12-23T18:47:17.210Z,4.10
2022-12-23T18:49:45.226Z,3.53
2022-12-23T18:52:14.602Z,3.70
2022-12-23T18:54:42.689Z,3.70
2022-12-23T18:57:11.253Z,3.73
2022-12-23T18:59:39.864Z,4.20
2022-12-23T19:02:08.167Z,4.90
2022-12-23T19:04:36.324Z,3.90
2022-12-23T19:07:04.334Z,4.13
2022-12-23T19:09:33.759Z,3.73
2022-12-23T19:12:01.818Z,3.57
2022-12-23T19:14:29.868Z,3.70
2022-12-23T19:17:01.882Z,3.33
2022-12-23T19:19:29.973Z,3.57
2022-12-23T19:21:58.012Z,3.50
2022-12-23T19:24:26.136Z,3.90
2022-12-23T19:26:55.516Z,3.40
2022-12-23T19:29:23.561Z,3.10
2022-12-23T19:31:51.593Z,3.33
2022-12-23T19:34:19.646Z,3.60
2022-12-23T19:36:48.106Z,3.33
2022-12-23T19:39:18.272Z,2.93
2022-12-23T19:41:46.365Z,3.70
2022-12-23T19:44:15.945Z,3.10
2022-12-23T19:46:44.041Z,4.20
2022-12-23T19:49:19.512Z,3.10
2022-12-23T19:51:48.502Z,3.43
2022-12-23T19:54:16.588Z,3.73
2022-12-23T19:56:44.737Z,3.20
2022-12-23T19:59:12.948Z,3.30
2022-12-23T20:01:42.462Z,3.30
2022-12-23T20:04:10.702Z,3.50
2022-12-23T20:06:39.241Z,2.97
2022-12-23T20:09:07.347Z,3.30
2022-12-23T20:11:36.118Z,3.33
2022-12-23T20:14:04.219Z,3.40
2022-12-23T20:16:32.463Z,3.70
2022-12-23T20:19:01.915Z,3.87
2022-12-23T20:21:30.019Z,3.27
2022-12-23T20:24:01.686Z,3.07
2022-12-23T20:26:31.719Z,2.90
2022-12-23T20:28:59.819Z,3.60
2022-12-23T20:31:28.807Z,3.20
2022-12-23T20:33:56.988Z,3.47
2022-12-23T20:36:27.518Z,3.27
2022-12-23T20:38:56.106Z,3.23
2022-12-23T20:41:25.498Z,3.03
2022-12-23T20:44:31.626Z,3.83
2022-12-23T20:46:41.689Z,3.20
2022-12-23T20:49:13.923Z,3.40
2022-12-23T20:51:43.348Z,3.27
2022-12-23T20:54:11.379Z,3.37
2022-12-23T20:56:39.436Z,3.07
2022-12-23T20:59:07.516Z,3.00
2022-12-23T21:01:36.511Z,3.87
2022-12-23T21:04:05.682Z,3.50
2022-12-23T21:06:34.113Z,4.43
2022-12-23T21:09:05.030Z,3.27
2022-12-23T21:11:45.206Z,2.87
2022-12-23T21:14:13.588Z,3.33
2022-12-23T21:16:41.800Z,3.30
2022-12-23T21:19:14.390Z,4.10
2022-12-23T21:21:42.478Z,3.63
2022-12-23T21:24:11.937Z,3.30
2022-12-23T21:26:40.210Z,3.07
2022-12-23T21:29:08.853Z,3.83
2022-12-23T21:31:38.726Z,3.10
2022-12-23T21:34:07.019Z,3.27
2022-12-23T21:36:36.461Z,2.93
2022-12-23T21:39:04.551Z,3.17
2022-12-23T21:41:36.671Z,3.57
2022-12-23T21:44:04.930Z,3.17
2022-12-23T21:46:33.025Z,3.17
2022-12-23T21:49:01.132Z,3.17
2022-12-23T21:51:36.918Z,3.40
2022-12-23T21:54:08.071Z,3.30
2022-12-23T21:56:37.504Z,3.80
2022-12-23T21:59:06.492Z,4.00
2022-12-23T22:01:34.558Z,3.87
2022-12-23T22:04:02.640Z,4.07
2022-12-23T22:06:31.825Z,3.70
2022-12-23T22:09:00.120Z,3.53
2022-12-23T22:11:29.093Z,3.43
2022-12-23T22:13:58.760Z,3.67
2022-12-23T22:16:27.808Z,3.80
2022-12-23T22:18:55.941Z,3.67
2022-12-23T22:21:24.653Z,3.13
2022-12-23T22:23:53.316Z,3.13
2022-12-23T22:26:26.722Z,3.67
2022-12-23T22:28:55.263Z,3.13
2022-12-23T22:31:31.467Z,3.67
2022-12-23T22:33:59.574Z,3.60
2022-12-23T22:36:27.794Z,4.20
2022-12-23T22:38:56.806Z,4.17
2022-12-23T22:41:25.435Z,3.20
2022-12-23T22:43:53.487Z,3.87
2022-12-23T22:46:21.676Z,3.70
2022-12-23T22:48:51.147Z,3.47
2022-12-23T22:51:20.176Z,4.17
2022-12-23T22:53:48.255Z,3.60
2022-12-23T22:56:17.285Z,3.50
2022-12-23T22:58:45.296Z,3.50
2022-12-23T23:01:20.473Z,4.13
2022-12-23T23:03:56.919Z,3.37
2022-12-23T23:06:25.892Z,3.43
2022-12-23T23:08:54.081Z,4.00
2022-12-23T23:11:22.113Z,3.53
2022-12-23T23:13:50.149Z,4.13
2022-12-23T23:16:18.210Z,4.53
2022-12-23T23:18:46.303Z,3.87
2022-12-23T23:21:15.720Z,3.60
2022-12-23T23:23:43.804Z,3.80
2022-12-23T23:26:11.873Z,2.97
2022-12-23T23:28:40.388Z,4.70
2022-12-23T23:34:01.869Z,3.47
2022-12-23T23:36:31.309Z,3.43
2022-12-23T23:38:59.414Z,3.83
2022-12-23T23:41:27.544Z,4.30
2022-12-23T23:43:55.590Z,4.07
2022-12-23T23:46:23.697Z,3.47
2022-12-23T23:48:52.200Z,3.97
2022-12-23T23:51:20.221Z,3.90
2022-12-23T23:53:49.673Z,3.70
2022-12-23T23:56:23.778Z,3.87
2022-12-23T23:58:53.361Z,3.93
